createdAt,value
2018-01-27T00:01:59.770Z,7.50
2018-01-27T00:04:28.620Z,7.50
2018-01-27T00:06:58.857Z,7.50
2018-01-27T00:09:27.262Z,7.50
2018-01-27T00:11:55.546Z,7.50
2018-01-27T00:14:23.794Z,7.50
2018-01-27T00:16:52.116Z,7.50
2018-01-27T00:19:20.381Z,7.50
2018-01-27T00:21:48.676Z,7.50
2018-01-27T00:24:16.926Z,7.50
2018-01-27T00:26:45.194Z,7.50
2018-01-27T00:29:13.475Z,7.50
2018-01-27T00:31:42.687Z,7.50
2018-01-27T00:34:10.980Z,7.50
2018-01-27T00:36:39.235Z,7.50
2018-01-27T00:39:07.544Z,7.50
2018-01-27T00:41:36.731Z,7.50
2018-01-27T00:44:04.978Z,7.50
2018-01-27T00:46:33.277Z,7.50
2018-01-27T00:49:01.571Z,7.50
2018-01-27T00:51:32.808Z,7.50
2018-01-27T00:54:01.095Z,7.40
2018-01-27T00:56:30.334Z,7.40
2018-01-27T00:58:58.578Z,7.40
2018-01-27T01:01:32.792Z,7.40
2018-01-27T01:04:01.057Z,7.40
2018-01-27T01:06:30.306Z,7.40
2018-01-27T01:08:58.601Z,7.40
2018-01-27T01:11:30.106Z,7.30
2018-01-27T01:13:57.642Z,7.30
2018-01-27T01:16:25.908Z,7.40
2018-01-27T01:18:54.162Z,7.40
2018-01-27T01:21:25.478Z,7.30
2018-01-27T01:23:53.773Z,7.40
2018-01-27T01:26:22.988Z,7.40
2018-01-27T01:28:51.277Z,7.40
2018-01-27T01:31:19.566Z,7.40
2018-01-27T01:33:47.818Z,7.40
2018-01-27T01:36:16.067Z,7.40
2018-01-27T01:38:44.365Z,7.40
2018-01-27T01:41:13.610Z,7.40
2018-01-27T01:43:47.638Z,7.40
2018-01-27T01:46:19.018Z,7.40
2018-01-27T01:48:47.290Z,7.40
2018-01-27T01:51:15.544Z,7.40
2018-01-27T01:53:43.822Z,7.40
2018-01-27T01:56:13.062Z,7.30
2018-01-27T01:58:41.310Z,7.40
2018-01-27T02:01:09.591Z,7.40
2018-01-27T02:03:37.852Z,7.40
2018-01-27T02:06:08.127Z,7.40
2018-01-27T02:08:36.379Z,7.30
2018-01-27T02:11:09.052Z,7.30
2018-01-27T02:13:37.310Z,7.30
2018-01-27T02:16:12.066Z,7.40
2018-01-27T02:18:40.317Z,7.30
2018-01-27T02:21:08.581Z,7.30
2018-01-27T02:23:36.871Z,7.30
2018-01-27T02:26:06.090Z,7.30
2018-01-27T02:28:34.354Z,7.30
2018-01-27T02:31:03.554Z,7.30
2018-01-27T02:33:31.848Z,7.30
2018-01-27T02:36:04.833Z,7.30
2018-01-27T02:38:33.123Z,7.30
2018-01-27T02:41:08.382Z,7.30
2018-01-27T02:43:36.662Z,7.20
2018-01-27T02:46:06.850Z,7.20
2018-01-27T02:48:35.136Z,7.20
2018-01-27T02:51:03.421Z,7.10
2018-01-27T02:53:31.676Z,7.10
2018-01-27T02:55:59.966Z,7.10
2018-01-27T02:58:29.390Z,7.10
2018-01-27T03:00:58.635Z,7.20
2018-01-27T03:03:26.943Z,7.20
2018-01-27T03:05:55.196Z,7.10
2018-01-27T03:08:23.445Z,7.10
2018-01-27T03:10:51.718Z,7.10
2018-01-27T03:13:19.971Z,7.00
2018-01-27T03:15:48.251Z,7.00
2018-01-27T03:18:16.530Z,7.10
2018-01-27T03:20:49.870Z,7.00
2018-01-27T03:23:18.170Z,7.00
2018-01-27T03:25:47.390Z,7.00
2018-01-27T03:28:15.643Z,6.90
2018-01-27T03:30:43.920Z,6.90
2018-01-27T03:33:12.207Z,6.80
2018-01-27T03:35:41.465Z,6.80
2018-01-27T03:38:09.719Z,6.80
2018-01-27T03:40:37.966Z,6.80
2018-01-27T03:43:06.255Z,6.80
2018-01-27T03:45:34.513Z,6.80
2018-01-27T03:48:02.793Z,6.90
2018-01-27T03:50:31.042Z,6.90
2018-01-27T03:53:00.497Z,6.80
2018-01-27T03:55:29.527Z,6.90
2018-01-27T03:57:58.862Z,6.70
2018-01-27T04:00:27.126Z,6.60
2018-01-27T04:02:55.418Z,6.60
2018-01-27T04:05:23.675Z,6.40
2018-01-27T04:07:51.924Z,6.40
2018-01-27T04:10:20.195Z,6.40
2018-01-27T04:12:48.662Z,6.30
2018-01-27T04:15:16.954Z,6.40
2018-01-27T04:17:45.210Z,6.40
2018-01-27T04:20:13.466Z,6.50
2018-01-27T04:22:41.757Z,6.40
2018-01-27T04:25:10.002Z,6.40
2018-01-27T04:27:39.218Z,6.40
2018-01-27T04:30:07.493Z,6.50
2018-01-27T04:32:35.778Z,6.50
2018-01-27T04:35:04.040Z,6.50
2018-01-27T04:37:32.674Z,6.50
2018-01-27T04:40:00.928Z,6.50
2018-01-27T04:42:30.714Z,6.50
2018-01-27T04:45:00.264Z,6.50
2018-01-27T04:47:28.522Z,6.40
2018-01-27T04:49:56.769Z,6.40
2018-01-27T04:52:25.067Z,6.40
2018-01-27T04:54:53.323Z,6.30
2018-01-27T04:57:22.558Z,6.30
2018-01-27T04:59:50.846Z,6.20
2018-01-27T05:02:19.099Z,6.20
2018-01-27T05:04:47.352Z,6.10
2018-01-27T05:07:15.629Z,6.10
2018-01-27T05:09:43.914Z,6.10
2018-01-27T05:12:12.157Z,6.10
2018-01-27T05:14:41.391Z,6.10
2018-01-27T05:17:09.673Z,5.90
2018-01-27T05:19:38.961Z,5.90
2018-01-27T05:22:07.214Z,5.80
2018-01-27T05:24:37.478Z,5.90
2018-01-27T05:27:05.769Z,5.90
2018-01-27T05:29:34.995Z,5.90
2018-01-27T05:32:03.288Z,5.90
2018-01-27T05:34:31.558Z,5.90
2018-01-27T05:36:59.841Z,5.90
2018-01-27T05:39:28.782Z,5.90
2018-01-27T05:41:57.053Z,6.00
2018-01-27T05:44:26.289Z,6.10
2018-01-27T05:46:54.534Z,6.00
2018-01-27T05:49:22.810Z,6.10
2018-01-27T05:51:51.099Z,6.10
2018-01-27T05:54:20.323Z,6.10
2018-01-27T05:56:48.578Z,6.10
2018-01-27T05:59:18.871Z,6.20
2018-01-27T06:01:47.126Z,6.20
2018-01-27T06:04:15.405Z,6.10
2018-01-27T06:06:43.662Z,6.20
2018-01-27T06:09:12.890Z,6.20
2018-01-27T06:11:41.182Z,6.20
2018-01-27T06:14:14.082Z,6.20
2018-01-27T06:16:42.370Z,6.20
2018-01-27T06:19:10.622Z,6.20
2018-01-27T06:21:38.873Z,6.20
2018-01-27T06:24:08.159Z,6.20
2018-01-27T06:26:36.426Z,6.20
2018-01-27T06:29:05.673Z,6.20
2018-01-27T06:31:33.926Z,6.20
2018-01-27T06:34:02.235Z,6.10
2018-01-27T06:36:30.499Z,6.10
2018-01-27T06:38:59.647Z,6.20
2018-01-27T06:41:29.054Z,6.10
2018-01-27T06:43:58.983Z,6.10
2018-01-27T06:46:28.501Z,6.20
2018-01-27T06:48:56.832Z,6.10
2018-01-27T06:51:25.122Z,6.10
2018-01-27T06:53:53.371Z,6.20
2018-01-27T06:56:21.635Z,6.10
2018-01-27T06:58:49.919Z,6.10
2018-01-27T07:01:18.188Z,6.10
2018-01-27T07:03:46.469Z,6.10
2018-01-27T07:06:14.722Z,6.20
2018-01-27T07:08:53.087Z,6.20
2018-01-27T07:11:21.330Z,6.20
2018-01-27T07:13:50.516Z,6.30
2018-01-27T07:16:18.807Z,6.30
2018-01-27T07:18:47.071Z,6.30
2018-01-27T07:21:15.356Z,6.30
2018-01-27T07:23:45.585Z,6.40
2018-01-27T07:26:13.845Z,6.30
2018-01-27T07:28:42.134Z,6.30
2018-01-27T07:31:10.378Z,6.30
2018-01-27T07:33:38.633Z,6.30
2018-01-27T07:36:06.914Z,6.30
2018-01-27T07:38:35.213Z,6.30
2018-01-27T07:41:03.462Z,6.30
2018-01-27T07:43:31.726Z,6.30
2018-01-27T07:46:00.032Z,6.30
2018-01-27T07:48:29.314Z,6.30
2018-01-27T07:50:56.802Z,6.20
2018-01-27T07:53:27.078Z,6.30
2018-01-27T07:55:55.323Z,6.30
2018-01-27T07:58:23.573Z,6.30
2018-01-27T08:00:51.851Z,6.30
2018-01-27T08:03:21.896Z,6.30
2018-01-27T08:05:50.142Z,6.30
2018-01-27T08:08:18.434Z,6.30
2018-01-27T08:10:46.682Z,6.40
2018-01-27T08:13:15.923Z,6.40
2018-01-27T08:15:44.207Z,6.40
2018-01-27T08:18:12.495Z,6.40
2018-01-27T08:20:40.742Z,6.50
2018-01-27T08:23:09.029Z,6.50
2018-01-27T08:25:37.314Z,6.50
2018-01-27T08:28:05.570Z,6.50
2018-01-27T08:30:33.823Z,6.50
2018-01-27T08:33:02.106Z,6.60
2018-01-27T08:35:30.358Z,6.60
2018-01-27T08:37:58.647Z,6.50
2018-01-27T08:40:26.930Z,6.50
2018-01-27T08:42:55.202Z,6.50
2018-01-27T08:45:23.454Z,6.60
2018-01-27T08:47:51.731Z,6.50
2018-01-27T08:50:20.030Z,6.50
2018-01-27T08:52:48.274Z,6.50
2018-01-27T08:55:16.518Z,6.40
2018-01-27T08:57:44.798Z,6.50
2018-01-27T09:00:13.078Z,6.50
2018-01-27T09:02:41.325Z,6.50
2018-01-27T09:05:09.597Z,6.40
2018-01-27T09:07:37.850Z,6.40
2018-01-27T09:10:06.140Z,6.40
2018-01-27T09:12:34.398Z,6.30
2018-01-27T09:15:02.683Z,6.40
2018-01-27T09:17:30.957Z,6.40
2018-01-27T09:20:00.457Z,6.40
2018-01-27T09:22:28.476Z,6.40
2018-01-27T09:24:56.729Z,6.50
2018-01-27T09:27:25.042Z,6.60
2018-01-27T09:29:53.335Z,6.60
2018-01-27T09:32:21.614Z,6.60
2018-01-27T09:34:49.862Z,6.60
2018-01-27T09:37:18.147Z,6.70
2018-01-27T09:39:46.399Z,6.80
2018-01-27T09:42:15.682Z,6.70
2018-01-27T09:44:43.935Z,6.70
2018-01-27T09:47:12.277Z,6.70
2018-01-27T09:49:40.518Z,6.70
2018-01-27T09:52:08.797Z,6.80
2018-01-27T09:54:36.298Z,6.70
2018-01-27T09:57:04.773Z,6.80
2018-01-27T09:59:33.026Z,6.80
2018-01-27T10:02:03.339Z,6.80
2018-01-27T10:04:31.596Z,6.80
2018-01-27T10:06:59.918Z,6.80
2018-01-27T10:09:28.879Z,6.80
2018-01-27T10:11:57.133Z,6.80
2018-01-27T10:14:25.418Z,6.90
2018-01-27T10:16:53.747Z,7.00
2018-01-27T10:19:22.035Z,7.00
2018-01-27T10:21:50.342Z,7.00
2018-01-27T10:24:18.623Z,7.00
2018-01-27T10:26:46.943Z,7.00
2018-01-27T10:29:15.224Z,7.20
2018-01-27T10:31:43.476Z,7.30
2018-01-27T10:34:11.776Z,7.30
2018-01-27T10:36:40.027Z,7.30
2018-01-27T10:39:08.284Z,7.40
2018-01-27T10:41:36.595Z,7.40
2018-01-27T10:44:04.877Z,7.50
2018-01-27T10:46:33.126Z,7.40
2018-01-27T10:49:01.420Z,7.50
2018-01-27T10:51:29.754Z,7.50
2018-01-27T10:53:58.960Z,7.50
2018-01-27T10:56:29.649Z,7.50
2018-01-27T10:58:58.847Z,7.50
2018-01-27T11:01:31.022Z,7.40
2018-01-27T11:03:58.507Z,7.40
2018-01-27T11:06:27.060Z,7.40
2018-01-27T11:08:55.315Z,7.50
2018-01-27T11:11:23.577Z,7.40
2018-01-27T11:13:51.863Z,7.40
2018-01-27T11:16:21.204Z,7.40
2018-01-27T11:18:49.410Z,7.40
2018-01-27T11:21:17.742Z,7.40
2018-01-27T11:23:45.988Z,7.50
2018-01-27T11:26:14.270Z,7.50
2018-01-27T11:28:42.546Z,7.50
2018-01-27T11:31:10.857Z,7.50
2018-01-27T11:33:39.110Z,7.50
2018-01-27T11:36:07.363Z,7.60
2018-01-27T11:38:35.655Z,7.50
2018-01-27T11:41:03.929Z,7.50
2018-01-27T11:43:32.207Z,7.50
2018-01-27T11:46:00.536Z,7.60
2018-01-27T11:48:29.860Z,7.50
2018-01-27T11:50:59.479Z,7.40
2018-01-27T11:53:27.763Z,7.40
2018-01-27T11:55:56.071Z,7.40
2018-01-27T11:58:24.318Z,7.60
2018-01-27T12:00:53.546Z,7.50
2018-01-27T12:03:21.817Z,7.50
2018-01-27T12:05:50.156Z,7.40
2018-01-27T12:08:18.442Z,7.40
2018-01-27T12:10:46.692Z,7.30
2018-01-27T12:13:14.967Z,7.30
2018-01-27T12:15:43.255Z,7.40
2018-01-27T12:18:13.523Z,7.40
2018-01-27T12:20:41.039Z,7.40
2018-01-27T12:23:09.339Z,7.40
2018-01-27T12:25:37.598Z,7.50
2018-01-27T12:28:07.914Z,7.50
2018-01-27T12:30:36.211Z,7.60
2018-01-27T12:33:11.950Z,7.60
2018-01-27T12:35:40.208Z,7.60
2018-01-27T12:38:08.547Z,7.60
2018-01-27T12:40:36.834Z,7.60
2018-01-27T12:43:05.086Z,7.50
2018-01-27T12:45:33.362Z,7.70
2018-01-27T12:48:01.714Z,7.80
2018-01-27T12:50:30.211Z,7.70
2018-01-27T12:52:58.507Z,7.80
2018-01-27T12:55:26.790Z,7.80
2018-01-27T12:57:55.125Z,7.80
2018-01-27T13:00:23.374Z,7.90
2018-01-27T13:02:51.655Z,7.90
2018-01-27T13:05:19.258Z,7.90
2018-01-27T13:07:47.587Z,7.90
2018-01-27T13:10:15.932Z,8.00
2018-01-27T13:12:45.221Z,7.90
2018-01-27T13:15:13.540Z,7.90
2018-01-27T13:17:41.828Z,7.90
2018-01-27T13:20:10.114Z,8.00
2018-01-27T13:22:42.151Z,8.00
2018-01-27T13:25:10.399Z,8.00
2018-01-27T13:27:39.233Z,8.10
2018-01-27T13:30:07.538Z,8.00
2018-01-27T13:32:35.929Z,8.00
2018-01-27T13:35:04.183Z,7.90
2018-01-27T13:37:32.533Z,7.90
2018-01-27T13:40:00.823Z,8.00
2018-01-27T13:42:32.238Z,8.00
2018-01-27T13:44:59.760Z,8.00
2018-01-27T13:47:29.523Z,8.10
2018-01-27T13:49:59.061Z,8.10
2018-01-27T13:52:28.136Z,8.10
2018-01-27T13:54:56.463Z,8.10
2018-01-27T13:57:24.724Z,8.20
2018-01-27T13:59:52.982Z,8.10
2018-01-27T14:02:21.238Z,8.10
2018-01-27T14:04:49.539Z,8.30
2018-01-27T14:07:18.516Z,8.30
2018-01-27T14:09:46.766Z,8.20
2018-01-27T14:12:15.084Z,8.20
2018-01-27T14:14:43.338Z,8.30
2018-01-27T14:17:11.646Z,8.20
2018-01-27T14:19:39.898Z,8.10
2018-01-27T14:22:08.190Z,8.20
2018-01-27T14:24:36.489Z,8.20
2018-01-27T14:27:05.125Z,8.20
2018-01-27T14:29:33.411Z,8.10
2018-01-27T14:32:01.678Z,8.10
2018-01-27T14:34:30.214Z,8.20
2018-01-27T14:36:58.964Z,8.20
2018-01-27T14:39:27.250Z,8.20
2018-01-27T14:41:55.538Z,8.20
2018-01-27T14:44:23.791Z,8.20
2018-01-27T14:46:52.066Z,8.30
2018-01-27T14:49:20.388Z,8.20
2018-01-27T14:51:48.674Z,8.20
2018-01-27T14:54:16.921Z,8.10
2018-01-27T14:56:45.198Z,8.10
2018-01-27T14:59:13.456Z,8.20
2018-01-27T15:01:41.776Z,8.20
2018-01-27T15:04:10.069Z,8.20
2018-01-27T15:06:38.405Z,8.20
2018-01-27T15:09:06.733Z,8.20
2018-01-27T15:11:35.006Z,8.10
2018-01-27T15:14:03.264Z,8.00
2018-01-27T15:16:31.555Z,8.10
2018-01-27T15:19:00.110Z,8.00
2018-01-27T15:21:29.366Z,7.90
2018-01-27T15:23:57.619Z,7.90
2018-01-27T15:26:25.897Z,7.90
2018-01-27T15:28:54.164Z,7.90
2018-01-27T15:31:22.497Z,7.90
2018-01-27T15:33:50.740Z,7.90
2018-01-27T15:36:19.042Z,7.80
2018-01-27T15:38:47.315Z,7.80
2018-01-27T15:41:15.601Z,7.80
2018-01-27T15:43:43.854Z,7.80
2018-01-27T15:46:12.129Z,7.70
2018-01-27T15:48:40.378Z,7.70
2018-01-27T15:51:08.654Z,7.60
2018-01-27T15:53:36.935Z,7.60
2018-01-27T15:56:05.189Z,7.60
2018-01-27T15:58:33.480Z,7.60
2018-01-27T16:01:01.751Z,7.50
2018-01-27T16:03:32.385Z,7.50
2018-01-27T16:05:59.912Z,7.50
2018-01-27T16:08:29.115Z,7.50
2018-01-27T16:10:58.191Z,7.50
2018-01-27T16:13:26.521Z,7.50
2018-01-27T16:15:54.761Z,7.40
2018-01-27T16:18:23.046Z,7.40
2018-01-27T16:20:51.305Z,7.50
2018-01-27T16:23:19.563Z,7.40
2018-01-27T16:25:47.842Z,7.40
2018-01-27T16:28:16.118Z,7.40
2018-01-27T16:30:44.452Z,7.40
2018-01-27T16:33:12.703Z,7.40
2018-01-27T16:35:40.987Z,7.40
2018-01-27T16:38:09.252Z,7.30
2018-01-27T16:40:37.538Z,7.20
2018-01-27T16:43:05.796Z,7.20
2018-01-27T16:45:40.145Z,7.30
2018-01-27T16:48:08.390Z,7.10
2018-01-27T16:50:36.675Z,7.10
2018-01-27T16:53:04.216Z,7.10
2018-01-27T16:55:32.466Z,7.10
2018-01-27T16:58:00.710Z,7.00
2018-01-27T17:00:29.683Z,7.00
2018-01-27T17:02:59.073Z,7.00
2018-01-27T17:05:28.886Z,6.90
2018-01-27T17:07:57.194Z,6.90
2018-01-27T17:10:25.470Z,6.90
2018-01-27T17:12:53.769Z,6.90
2018-01-27T17:15:21.277Z,6.90
2018-01-27T17:17:49.539Z,6.90
2018-01-27T17:20:17.841Z,6.90
2018-01-27T17:22:46.098Z,6.80
2018-01-27T17:25:14.346Z,6.80
2018-01-27T17:27:42.634Z,6.80
2018-01-27T17:30:10.973Z,6.90
2018-01-27T17:32:39.221Z,6.90
2018-01-27T17:35:07.554Z,6.90
2018-01-27T17:37:35.798Z,6.90
2018-01-27T17:40:04.114Z,6.90
2018-01-27T17:42:32.371Z,6.90
2018-01-27T17:44:59.902Z,6.90
2018-01-27T17:47:28.999Z,6.80
2018-01-27T17:49:58.456Z,6.90
2018-01-27T17:52:26.748Z,6.90
2018-01-27T17:54:55.003Z,7.00
2018-01-27T17:57:23.338Z,7.10
2018-01-27T17:59:51.586Z,7.10
2018-01-27T18:02:19.870Z,7.20
2018-01-27T18:04:48.175Z,7.10
2018-01-27T18:07:16.462Z,7.20
2018-01-27T18:09:44.738Z,7.20
2018-01-27T18:12:12.990Z,7.20
2018-01-27T18:14:41.313Z,7.20
2018-01-27T18:17:09.567Z,7.30
2018-01-27T18:19:37.900Z,7.20
2018-01-27T18:22:06.232Z,7.20
2018-01-27T18:24:35.488Z,7.20
2018-01-27T18:27:02.976Z,7.20
2018-01-27T18:29:31.282Z,7.20
2018-01-27T18:32:05.333Z,7.20
2018-01-27T18:34:33.634Z,7.20
2018-01-27T18:37:01.970Z,7.20
2018-01-27T18:39:30.220Z,7.20
2018-01-27T18:42:00.494Z,7.20
2018-01-27T18:44:29.395Z,7.30
2018-01-27T18:46:59.052Z,7.20
2018-01-27T18:49:28.092Z,7.30
2018-01-27T18:51:56.334Z,7.30
2018-01-27T18:54:24.664Z,7.30
2018-01-27T18:56:52.906Z,7.20
2018-01-27T18:59:22.152Z,7.30
2018-01-27T19:01:50.402Z,7.20
2018-01-27T19:04:18.750Z,7.20
2018-01-27T19:06:48.029Z,7.20
2018-01-27T19:09:16.330Z,7.30
2018-01-27T19:11:44.608Z,7.20
2018-01-27T19:14:12.906Z,7.30
2018-01-27T19:16:41.223Z,7.30
2018-01-27T19:19:09.495Z,7.30
2018-01-27T19:21:37.790Z,7.20
2018-01-27T19:24:06.107Z,7.20
2018-01-27T19:26:34.364Z,7.30
2018-01-27T19:29:02.690Z,7.20
2018-01-27T19:31:34.187Z,7.30
2018-01-27T19:34:02.490Z,7.30
2018-01-27T19:36:34.286Z,7.30
2018-01-27T19:39:02.586Z,7.30
2018-01-27T19:41:30.852Z,7.20
2018-01-27T19:43:59.882Z,7.20
2018-01-27T19:46:33.404Z,7.10
2018-01-27T19:49:01.663Z,7.20
2018-01-27T19:51:30.022Z,7.20
2018-01-27T19:53:59.342Z,7.10
2018-01-27T19:56:28.537Z,7.10
2018-01-27T19:58:56.827Z,7.10
2018-01-27T20:01:25.082Z,7.10
2018-01-27T20:03:53.377Z,7.10
2018-01-27T20:06:21.654Z,7.10
2018-01-27T20:08:49.958Z,7.10
2018-01-27T20:11:19.261Z,7.10
2018-01-27T20:13:47.530Z,7.10
2018-01-27T20:16:15.858Z,7.00
2018-01-27T20:18:44.144Z,7.00
2018-01-27T20:21:13.448Z,7.00
2018-01-27T20:23:41.785Z,7.00
2018-01-27T20:26:17.092Z,7.00
2018-01-27T20:28:45.438Z,7.00
2018-01-27T20:31:13.682Z,7.00
2018-01-27T20:33:48.723Z,7.00
2018-01-27T20:38:43.502Z,7.00
2018-01-27T20:41:11.806Z,6.90
2018-01-27T20:43:41.314Z,6.90
2018-01-27T20:46:09.609Z,7.00
2018-01-27T20:48:37.904Z,7.00
2018-01-27T20:51:09.267Z,6.90
2018-01-27T20:53:37.581Z,6.90
2018-01-27T20:56:11.276Z,6.90
2018-01-27T20:58:39.538Z,6.90
2018-01-27T21:01:07.884Z,6.90
2018-01-27T21:03:36.142Z,6.90
2018-01-27T21:06:04.442Z,6.90
2018-01-27T21:08:32.727Z,6.90
2018-01-27T21:11:01.062Z,6.80
2018-01-27T21:13:35.637Z,6.80
2018-01-27T21:16:03.888Z,6.80
2018-01-27T21:18:38.744Z,6.80
2018-01-27T21:21:07.049Z,6.90
2018-01-27T21:23:36.238Z,6.80
2018-01-27T21:26:04.527Z,6.90
2018-01-27T21:28:32.834Z,6.90
2018-01-27T21:31:01.165Z,6.90
2018-01-27T21:33:31.441Z,6.90
2018-01-27T21:36:00.141Z,6.90
2018-01-27T21:38:31.457Z,6.80
2018-01-27T21:40:59.797Z,6.90
2018-01-27T21:43:29.686Z,6.90
2018-01-27T21:45:59.073Z,6.90
2018-01-27T21:48:28.125Z,6.90
2018-01-27T21:50:56.458Z,6.90
2018-01-27T21:53:24.793Z,6.90
2018-01-27T21:55:53.088Z,6.80
2018-01-27T21:58:22.387Z,6.90
2018-01-27T22:00:50.685Z,6.90
2018-01-27T22:03:18.990Z,6.90
2018-01-27T22:05:47.319Z,6.90
2018-01-27T22:08:17.605Z,6.80
2018-01-27T22:10:45.933Z,6.70
2018-01-27T22:13:14.253Z,6.80
2018-01-27T22:15:42.521Z,6.80
2018-01-27T22:18:10.829Z,6.70
2018-01-27T22:20:39.114Z,6.70
2018-01-27T22:23:11.833Z,6.70
2018-01-27T22:25:40.170Z,6.70
2018-01-27T22:28:08.469Z,6.60
2018-01-27T22:30:37.741Z,6.60
2018-01-27T22:33:05.995Z,6.50
2018-01-27T22:35:36.253Z,6.60
2018-01-27T22:38:04.557Z,6.50
2018-01-27T22:40:32.848Z,6.50
2018-01-27T22:43:01.186Z,6.50
2018-01-27T22:45:30.557Z,6.50
2018-01-27T22:48:00.088Z,6.40
2018-01-27T22:50:31.294Z,6.40
2018-01-27T22:53:00.383Z,6.50
2018-01-27T22:55:30.420Z,6.40
2018-01-27T22:57:59.901Z,6.50
2018-01-27T23:00:29.024Z,6.40
2018-01-27T23:02:58.992Z,6.40
2018-01-27T23:05:28.056Z,6.40
2018-01-27T23:07:58.424Z,6.40
2018-01-27T23:10:26.682Z,6.30
2018-01-27T23:12:55.008Z,6.30
2018-01-27T23:15:23.290Z,6.20
2018-01-27T23:17:51.630Z,6.20
2018-01-27T23:20:19.883Z,6.20
2018-01-27T23:22:48.213Z,6.20
2018-01-27T23:25:16.466Z,6.20
2018-01-27T23:27:44.747Z,6.10
2018-01-27T23:30:13.048Z,6.20
2018-01-27T23:32:41.328Z,6.20
2018-01-27T23:35:09.608Z,6.20
2018-01-27T23:37:39.427Z,6.20
2018-01-27T23:40:07.756Z,6.10
2018-01-27T23:42:37.046Z,6.10
2018-01-27T23:45:05.291Z,6.10
2018-01-27T23:47:37.554Z,6.10
2018-01-27T23:50:05.849Z,6.10
2018-01-27T23:52:34.095Z,6.00
2018-01-27T23:55:02.421Z,6.10
2018-01-27T23:57:29.947Z,6.10
2018-01-27T23:59:59.246Z,6.00
